Pagrindinis puslapis
METAR-TAF:

METAR-TAF

Oro uostai :

Ivalo, Suomija

platuma: 68-37N, ilguma: 027-25E, Aukštis: 147 m

Dabartinis oras

Ataskaita buvo paskelbta 33 minutes, ne 04:50 UTC
Vėjas 2 kt iš Pietų/Pietryčių
Temperatūra -8°C
Drėgmė 92%
Slėgis 975 hPa
Matomumas: 2100 m
rūkana

METAR: EFIV 300450Z AUTO 15002KT 2100 BR VV003 M08/M09 Q0975

Laikas: 07:23 (05:23 UTC)

Prognozė

Ataskaita buvo paskelbta 2 valandos ir 47 minutes, ne 02:36 UTC
Prognozė galioja nuo 30 metu 03 UTC su 30 metu 12 UTC
Vėjas 2 kt iš Šiaurės
Matomumas: 1200 m
Apsiniaukę ne aukštis 300 ft
Rūkas lopais
Laikinai
nuo 30 metu 03 UTC su 30 metu 06 UTC
Matomumas: 3900 m
(silpnas) ledijantis, lietus
Laikinai
nuo 30 metu 06 UTC su 30 metu 12 UTC
Matomumas 10 km arba daugiau

TAF: EFIV 300236Z 3003/3012 01002KT 1200 BCFG OVC003 TEMPO 3003/3006 3900 -FZRA TEMPO 3006/3012 9999

Orai ataskaitas ir orų prognozės (METAR, TAF).

turimą stotys yra geltonos ir raudonos taškus žemėlapyje.

Perkelti pele per norėdami pamatyti stoties vardą.

Tada spustelėkite, norėdami matyti oro stebėjimo ir prognozės.

Norėdami pakeisti žemėlapį: spustelėkite ant žalios mygtukų su juodo kryžiaus žemyn,; žalią mygtuką su brūkšneliu, jei norite nutolinti; arba žalių rodyklių gretimoms žemėlapius.


METAR-TAF: